createdAt,value
2019-02-18T00:01:08.991Z,4.30
2019-02-18T00:02:42.878Z,4.30
2019-02-18T00:04:16.557Z,4.31
2019-02-18T00:05:50.472Z,4.31
2019-02-18T00:07:24.298Z,4.33
2019-02-18T00:08:58.107Z,4.32
2019-02-18T00:10:32.141Z,4.33
2019-02-18T00:12:06.229Z,4.28
2019-02-18T00:13:40.125Z,4.34
2019-02-18T00:15:14.150Z,4.34
2019-02-18T00:16:48.044Z,4.32
2019-02-18T00:18:22.046Z,4.33
2019-02-18T00:19:55.707Z,4.32
2019-02-18T00:21:29.621Z,4.35
2019-02-18T00:23:03.729Z,4.34
2019-02-18T00:24:37.834Z,4.34
2019-02-18T00:26:11.551Z,4.34
2019-02-18T00:27:45.403Z,4.36
2019-02-18T00:29:19.410Z,4.36
2019-02-18T00:30:53.418Z,4.36
2019-02-18T00:32:27.367Z,4.36
2019-02-18T00:34:02.174Z,4.37
2019-02-18T00:35:36.278Z,4.38
2019-02-18T00:37:10.177Z,4.37
2019-02-18T00:38:43.895Z,4.37
2019-02-18T00:40:17.883Z,4.37
2019-02-18T00:41:52.193Z,4.39
2019-02-18T00:43:26.197Z,4.38
2019-02-18T00:45:00.366Z,4.37
2019-02-18T00:46:34.477Z,4.38
2019-02-18T00:48:08.294Z,4.31
2019-02-18T00:49:42.215Z,4.30
2019-02-18T00:51:16.399Z,4.32
2019-02-18T00:52:50.577Z,4.33
2019-02-18T00:54:24.747Z,4.32
2019-02-18T00:55:59.031Z,4.27
2019-02-18T00:57:33.058Z,4.29
2019-02-18T00:59:06.860Z,4.31
2019-02-18T01:00:40.946Z,4.32
2019-02-18T01:02:15.075Z,4.30
2019-02-18T01:03:49.900Z,4.29
2019-02-18T01:05:23.999Z,4.29
2019-02-18T01:06:57.758Z,4.29
2019-02-18T01:08:31.606Z,4.30
2019-02-18T01:10:06.126Z,4.30
2019-02-18T01:11:39.795Z,4.30
2019-02-18T01:13:14.032Z,4.30
2019-02-18T01:14:48.750Z,4.29
2019-02-18T01:16:22.838Z,4.31
2019-02-18T01:17:58.068Z,4.30
2019-02-18T01:19:32.231Z,4.23
2019-02-18T01:21:05.885Z,4.27
2019-02-18T01:22:54.929Z,4.28
2019-02-18T01:24:28.853Z,4.28
2019-02-18T01:26:02.685Z,4.25
2019-02-18T01:27:36.542Z,4.26
2019-02-18T01:29:10.665Z,4.26
2019-02-18T01:30:45.493Z,4.27
2019-02-18T01:32:19.764Z,4.24
2019-02-18T01:33:54.527Z,4.26
2019-02-18T01:35:29.347Z,4.18
2019-02-18T01:37:03.351Z,4.26
2019-02-18T01:38:37.356Z,4.26
2019-02-18T01:40:11.365Z,4.23
2019-02-18T01:41:45.057Z,4.22
2019-02-18T01:43:20.908Z,4.21
2019-02-18T01:44:54.912Z,4.24
2019-02-18T01:46:29.732Z,4.24
2019-02-18T01:48:03.930Z,4.26
2019-02-18T01:49:39.083Z,4.22
2019-02-18T01:51:12.980Z,4.26
2019-02-18T01:52:46.987Z,4.26
2019-02-18T01:54:21.091Z,4.24
2019-02-18T01:55:54.876Z,4.23
2019-02-18T01:57:28.873Z,4.23
2019-02-18T01:59:03.103Z,4.22
2019-02-18T02:00:38.232Z,4.21
2019-02-18T02:02:12.319Z,4.21
2019-02-18T02:03:46.552Z,4.23
2019-02-18T02:05:20.554Z,4.23
2019-02-18T02:06:54.486Z,4.21
2019-02-18T02:08:28.653Z,4.23
2019-02-18T02:10:02.979Z,4.24
2019-02-18T02:11:37.658Z,4.22
2019-02-18T02:13:17.541Z,4.23
2019-02-18T02:14:51.341Z,4.24
2019-02-18T02:16:27.381Z,4.23
2019-02-18T02:18:00.277Z,4.22
2019-02-18T02:19:34.472Z,4.23
2019-02-18T02:21:08.491Z,4.25
2019-02-18T02:22:43.108Z,4.24
2019-02-18T02:24:17.090Z,4.22
2019-02-18T02:25:51.304Z,4.22
2019-02-18T02:27:25.326Z,4.20
2019-02-18T02:28:59.966Z,4.21
2019-02-18T02:30:33.837Z,4.19
2019-02-18T02:32:07.658Z,4.19
2019-02-18T02:33:41.651Z,4.21
2019-02-18T02:35:15.673Z,4.21
2019-02-18T02:36:49.867Z,4.21
2019-02-18T02:38:23.969Z,4.16
2019-02-18T02:39:58.190Z,4.20
2019-02-18T02:41:32.400Z,4.22
2019-02-18T02:43:06.582Z,4.23
2019-02-18T02:44:40.517Z,4.24
2019-02-18T02:46:15.535Z,4.22
2019-02-18T02:47:49.451Z,4.21
2019-02-18T02:49:23.453Z,4.20
2019-02-18T02:50:57.629Z,4.19
2019-02-18T02:52:32.561Z,4.17
2019-02-18T02:54:06.652Z,4.18
2019-02-18T02:55:40.467Z,4.09
2019-02-18T02:57:14.467Z,4.12
2019-02-18T02:58:48.188Z,4.12
2019-02-18T03:00:23.234Z,4.12
2019-02-18T03:01:57.329Z,4.12
2019-02-18T03:03:31.408Z,4.12
2019-02-18T03:05:05.332Z,4.12
2019-02-18T03:06:39.533Z,4.13
2019-02-18T03:08:20.300Z,4.07
2019-02-18T03:09:47.527Z,4.07
2019-02-18T03:11:21.351Z,4.03
2019-02-18T03:12:55.238Z,4.04
2019-02-18T03:14:29.233Z,3.99
2019-02-18T03:16:03.259Z,3.95
2019-02-18T03:17:37.149Z,3.98
2019-02-18T03:19:11.171Z,3.99
2019-02-18T03:20:44.970Z,4.00
2019-02-18T03:22:19.258Z,4.01
2019-02-18T03:23:53.367Z,3.98
2019-02-18T03:25:34.753Z,3.94
2019-02-18T03:27:08.749Z,3.94
2019-02-18T03:29:00.887Z,3.91
2019-02-18T03:30:50.064Z,3.88
2019-02-18T03:32:23.985Z,3.90
2019-02-18T03:34:05.221Z,3.89
2019-02-18T03:35:39.058Z,3.89
2019-02-18T03:37:12.740Z,3.88
2019-02-18T03:38:46.742Z,3.83
2019-02-18T03:40:21.673Z,3.83
2019-02-18T03:41:56.357Z,3.79
2019-02-18T03:43:30.412Z,3.76
2019-02-18T03:45:04.172Z,3.76
2019-02-18T03:46:38.094Z,3.77
2019-02-18T03:48:12.105Z,3.78
2019-02-18T03:49:45.979Z,3.79
2019-02-18T03:51:20.107Z,3.80
2019-02-18T03:52:54.927Z,3.77
2019-02-18T03:54:29.039Z,3.77
2019-02-18T03:56:03.025Z,3.80
2019-02-18T03:57:38.166Z,3.79
2019-02-18T03:59:13.007Z,3.81
2019-02-18T04:00:46.880Z,3.84
2019-02-18T04:02:22.136Z,3.78
2019-02-18T04:03:56.040Z,3.81
2019-02-18T04:05:30.940Z,3.80
2019-02-18T04:07:04.865Z,3.84
2019-02-18T04:08:43.106Z,3.79
2019-02-18T04:10:13.061Z,3.79
2019-02-18T04:11:47.085Z,3.79
2019-02-18T04:13:20.771Z,3.79
2019-02-18T04:14:54.792Z,3.77
2019-02-18T04:16:29.202Z,3.78
2019-02-18T04:18:03.242Z,3.83
2019-02-18T04:19:38.315Z,3.81
2019-02-18T04:21:12.551Z,3.81
2019-02-18T04:22:46.741Z,3.74
2019-02-18T04:24:19.843Z,3.74
2019-02-18T04:25:54.253Z,3.82
2019-02-18T04:27:28.976Z,3.80
2019-02-18T04:29:02.877Z,3.75
2019-02-18T04:30:36.861Z,3.76
2019-02-18T04:32:10.754Z,3.71
2019-02-18T04:33:44.668Z,3.70
2019-02-18T04:35:19.615Z,3.75
2019-02-18T04:36:54.848Z,3.74
2019-02-18T04:38:28.960Z,3.77
2019-02-18T04:40:02.905Z,3.78
2019-02-18T04:41:36.850Z,3.74
2019-02-18T04:43:10.763Z,3.70
2019-02-18T04:44:45.692Z,3.74
2019-02-18T04:46:19.596Z,3.71
2019-02-18T04:47:53.705Z,3.78
2019-02-18T04:49:27.683Z,3.77
2019-02-18T04:51:01.710Z,3.77
2019-02-18T04:52:35.667Z,3.76
2019-02-18T04:54:09.719Z,3.76
2019-02-18T04:55:43.633Z,3.74
2019-02-18T04:57:17.434Z,3.80
2019-02-18T04:58:51.412Z,3.76
2019-02-18T05:00:25.314Z,3.78
2019-02-18T05:01:59.026Z,3.78
2019-02-18T05:03:32.830Z,3.79
2019-02-18T05:05:07.694Z,3.79
2019-02-18T05:06:42.680Z,3.78
2019-02-18T05:08:17.409Z,3.75
2019-02-18T05:09:51.345Z,3.72
2019-02-18T05:11:25.209Z,3.71
2019-02-18T05:12:59.415Z,3.71
2019-02-18T05:14:33.625Z,3.68
2019-02-18T05:16:07.735Z,3.66
2019-02-18T05:17:40.610Z,3.67
2019-02-18T05:19:15.122Z,3.65
2019-02-18T05:20:49.110Z,3.69
2019-02-18T05:22:23.027Z,3.72
2019-02-18T05:23:56.834Z,3.74
2019-02-18T05:25:31.025Z,3.72
2019-02-18T05:27:04.860Z,3.70
2019-02-18T05:28:39.154Z,3.70
2019-02-18T05:30:13.043Z,3.70
2019-02-18T05:31:47.862Z,3.74
2019-02-18T05:33:21.894Z,3.73
2019-02-18T05:34:56.091Z,3.76
2019-02-18T05:36:30.308Z,3.80
2019-02-18T05:38:04.186Z,3.80
2019-02-18T05:39:38.016Z,3.83
2019-02-18T05:41:11.781Z,3.84
2019-02-18T05:42:45.916Z,3.86
2019-02-18T05:44:20.642Z,3.88
2019-02-18T05:45:54.744Z,3.90
2019-02-18T05:47:28.636Z,3.91
2019-02-18T05:49:02.774Z,3.91
2019-02-18T05:50:36.962Z,3.93
2019-02-18T05:52:10.878Z,3.91
2019-02-18T05:53:45.038Z,3.93
2019-02-18T05:55:19.013Z,3.91
2019-02-18T05:56:51.846Z,3.92
2019-02-18T05:58:25.758Z,3.93
2019-02-18T05:59:59.971Z,3.92
2019-02-18T06:01:34.055Z,3.90
2019-02-18T06:03:07.937Z,3.94
2019-02-18T06:04:41.983Z,3.91
2019-02-18T06:06:16.189Z,3.91
2019-02-18T06:07:50.419Z,3.87
2019-02-18T06:09:29.713Z,3.88
2019-02-18T06:10:58.668Z,3.89
2019-02-18T06:12:32.831Z,3.89
2019-02-18T06:14:06.934Z,3.88
2019-02-18T06:15:40.618Z,3.87
2019-02-18T06:17:14.861Z,3.87
2019-02-18T06:18:47.705Z,3.87
2019-02-18T06:20:21.823Z,3.87
2019-02-18T06:21:56.755Z,3.90
2019-02-18T06:23:30.652Z,3.92
2019-02-18T06:25:04.554Z,3.89
2019-02-18T06:26:38.398Z,3.91
2019-02-18T06:28:12.234Z,3.92
2019-02-18T06:29:46.059Z,3.95
2019-02-18T06:31:20.882Z,3.96
2019-02-18T06:32:54.683Z,3.96
2019-02-18T06:34:29.713Z,3.90
2019-02-18T06:36:03.517Z,3.93
2019-02-18T06:37:37.310Z,3.91
2019-02-18T06:39:13.465Z,3.95
2019-02-18T06:40:48.306Z,3.96
2019-02-18T06:42:23.013Z,3.99
2019-02-18T06:43:57.125Z,4.01
2019-02-18T06:45:50.375Z,4.04
2019-02-18T06:47:27.347Z,4.07
2019-02-18T06:49:04.505Z,4.05
2019-02-18T06:50:38.057Z,4.12
2019-02-18T06:52:12.263Z,4.10
2019-02-18T06:53:46.339Z,4.14
2019-02-18T06:55:19.319Z,4.17
2019-02-18T06:56:58.215Z,4.22
2019-02-18T06:58:38.179Z,4.30
2019-02-18T07:00:16.202Z,4.35
2019-02-18T07:02:10.547Z,4.38
2019-02-18T07:03:50.511Z,4.39
2019-02-18T07:05:28.636Z,4.48
2019-02-18T07:07:07.425Z,4.53
2019-02-18T07:08:45.347Z,4.57
2019-02-18T07:10:24.341Z,4.62
2019-02-18T07:12:02.336Z,4.68
2019-02-18T07:13:37.153Z,4.74
2019-02-18T07:15:10.877Z,4.78
2019-02-18T07:16:44.823Z,4.83
2019-02-18T07:18:18.972Z,4.84
2019-02-18T07:19:52.996Z,4.89
2019-02-18T07:21:25.870Z,4.87
2019-02-18T07:23:00.785Z,4.91
2019-02-18T07:24:35.711Z,4.94
2019-02-18T07:26:10.023Z,4.95
2019-02-18T07:27:43.763Z,4.99
2019-02-18T07:29:17.628Z,4.99
2019-02-18T07:30:52.650Z,4.97
2019-02-18T07:32:25.465Z,5.03
2019-02-18T07:33:59.096Z,5.11
2019-02-18T07:35:33.110Z,5.17
2019-02-18T07:37:07.417Z,5.16
2019-02-18T07:38:41.513Z,5.26
2019-02-18T07:40:15.160Z,5.28
2019-02-18T07:41:48.918Z,5.30
2019-02-18T07:43:23.225Z,5.41
2019-02-18T07:44:56.718Z,5.37
2019-02-18T07:46:30.715Z,5.37
2019-02-18T07:48:04.636Z,5.37
2019-02-18T07:49:37.532Z,5.46
2019-02-18T07:51:11.595Z,5.43
2019-02-18T07:52:44.854Z,5.46
2019-02-18T07:54:18.964Z,5.52
2019-02-18T07:55:52.841Z,5.58
2019-02-18T07:57:26.736Z,5.64
2019-02-18T07:59:00.607Z,5.63
2019-02-18T08:00:35.610Z,5.61
2019-02-18T08:02:09.480Z,5.71
2019-02-18T08:03:43.452Z,5.76
2019-02-18T08:05:17.382Z,5.87
2019-02-18T08:06:51.195Z,5.90
2019-02-18T08:08:24.110Z,5.93
2019-02-18T08:09:58.345Z,6.05
2019-02-18T08:11:32.343Z,6.15
2019-02-18T08:13:06.684Z,6.15
2019-02-18T08:14:41.062Z,6.26
2019-02-18T08:16:14.954Z,6.25
2019-02-18T08:17:48.698Z,6.28
2019-02-18T08:19:22.885Z,6.41
2019-02-18T08:20:56.472Z,6.50
2019-02-18T08:22:30.310Z,6.55
2019-02-18T08:24:04.468Z,6.59
2019-02-18T08:25:38.494Z,6.66
2019-02-18T08:27:13.238Z,6.81
2019-02-18T08:28:47.018Z,6.69
2019-02-18T08:30:22.891Z,6.62
2019-02-18T08:31:56.689Z,6.67
2019-02-18T08:33:30.258Z,6.81
2019-02-18T08:35:04.096Z,6.82
2019-02-18T08:36:36.859Z,6.81
2019-02-18T08:38:10.879Z,6.87
2019-02-18T08:39:44.975Z,6.98
2019-02-18T08:41:20.720Z,7.08
2019-02-18T08:42:54.928Z,7.15
2019-02-18T08:44:28.687Z,7.15
2019-02-18T08:46:03.572Z,7.28
2019-02-18T08:47:37.572Z,7.44
2019-02-18T08:49:11.753Z,7.43
2019-02-18T08:50:46.587Z,7.43
2019-02-18T08:52:20.492Z,7.56
2019-02-18T08:53:54.285Z,7.49
2019-02-18T08:55:29.396Z,7.40
2019-02-18T08:57:03.342Z,7.49
2019-02-18T08:58:37.302Z,7.51
2019-02-18T09:00:10.327Z,7.37
2019-02-18T09:01:43.313Z,7.26
2019-02-18T09:03:16.153Z,7.36
2019-02-18T09:04:50.113Z,7.36
2019-02-18T09:06:24.110Z,7.32
2019-02-18T09:07:58.005Z,7.38
2019-02-18T09:09:30.750Z,7.44
2019-02-18T09:11:03.797Z,7.51
2019-02-18T09:12:37.849Z,7.55
2019-02-18T09:14:11.868Z,7.49
2019-02-18T09:15:45.961Z,7.55
2019-02-18T09:17:20.953Z,7.54
2019-02-18T09:18:53.975Z,7.62
2019-02-18T09:20:27.777Z,7.62
2019-02-18T09:22:05.618Z,7.73
2019-02-18T09:24:04.041Z,7.89
2019-02-18T09:25:44.934Z,7.99
2019-02-18T09:27:18.680Z,8.00
2019-02-18T09:28:52.491Z,7.82
2019-02-18T09:30:26.820Z,7.84
2019-02-18T09:32:01.019Z,7.83
2019-02-18T09:33:35.945Z,7.91
2019-02-18T09:35:09.956Z,7.99
2019-02-18T09:36:44.575Z,7.97
2019-02-18T09:38:24.821Z,8.06
2019-02-18T09:39:52.589Z,8.03
2019-02-18T09:41:26.544Z,8.13
2019-02-18T09:43:00.268Z,8.19
2019-02-18T09:44:34.298Z,8.08
2019-02-18T09:46:08.193Z,8.10
2019-02-18T09:47:42.065Z,8.10
2019-02-18T09:49:15.894Z,8.17
2019-02-18T09:50:49.780Z,8.32
2019-02-18T09:52:22.569Z,8.39
2019-02-18T09:53:55.375Z,8.34
2019-02-18T09:55:30.273Z,8.32
2019-02-18T09:57:03.133Z,8.28
2019-02-18T09:58:37.078Z,8.17
2019-02-18T10:00:10.805Z,8.18
2019-02-18T10:01:44.436Z,8.23
2019-02-18T10:03:18.437Z,8.08
2019-02-18T10:04:52.434Z,8.11
2019-02-18T10:06:26.104Z,8.12
2019-02-18T10:08:00.155Z,8.08
2019-02-18T10:09:34.108Z,8.15
2019-02-18T10:11:07.968Z,8.11
2019-02-18T10:12:41.121Z,8.36
2019-02-18T10:14:15.228Z,8.55
2019-02-18T10:15:48.921Z,8.67
2019-02-18T10:17:22.955Z,8.74
2019-02-18T10:18:56.904Z,8.82
2019-02-18T10:20:32.010Z,8.57
2019-02-18T10:22:04.680Z,8.51
2019-02-18T10:23:38.685Z,8.54
2019-02-18T10:25:12.776Z,8.41
2019-02-18T10:26:45.979Z,8.56
2019-02-18T10:28:19.823Z,8.42
2019-02-18T10:29:53.846Z,8.46
2019-02-18T10:31:27.978Z,8.51
2019-02-18T10:33:02.203Z,8.58
2019-02-18T10:34:34.951Z,8.52
2019-02-18T10:36:07.894Z,8.36
2019-02-18T10:37:40.745Z,8.19
2019-02-18T10:39:14.938Z,8.09
2019-02-18T10:40:49.140Z,8.24
2019-02-18T10:42:23.148Z,8.28
2019-02-18T10:43:55.921Z,8.44
2019-02-18T10:45:30.958Z,8.47
2019-02-18T10:47:05.782Z,8.45
2019-02-18T10:48:40.497Z,8.52
2019-02-18T10:50:13.130Z,8.60
2019-02-18T10:51:47.072Z,8.72
2019-02-18T10:53:22.103Z,8.99
2019-02-18T10:54:56.152Z,9.01
2019-02-18T10:56:30.939Z,8.94
2019-02-18T10:58:05.056Z,9.14
2019-02-18T10:59:39.047Z,9.34
2019-02-18T11:01:12.143Z,9.44
2019-02-18T11:02:45.933Z,9.54
2019-02-18T11:04:20.132Z,9.54
2019-02-18T11:05:54.837Z,9.59
2019-02-18T11:07:28.640Z,9.68
2019-02-18T11:09:02.766Z,9.67
2019-02-18T11:10:37.612Z,9.50
2019-02-18T11:12:10.651Z,9.50
2019-02-18T11:13:44.674Z,9.67
2019-02-18T11:15:19.391Z,9.65
2019-02-18T11:16:53.398Z,9.66
2019-02-18T11:18:27.299Z,9.55
2019-02-18T11:20:01.062Z,9.52
2019-02-18T11:21:35.178Z,9.39
2019-02-18T11:23:08.192Z,9.31
2019-02-18T11:24:42.132Z,9.30
2019-02-18T11:26:16.114Z,9.25
2019-02-18T11:27:49.969Z,9.43
2019-02-18T11:29:23.977Z,9.57
2019-02-18T11:30:57.692Z,9.57
2019-02-18T11:32:30.692Z,9.70
2019-02-18T11:34:04.322Z,9.67
2019-02-18T11:35:37.786Z,9.67
2019-02-18T11:37:13.717Z,9.85
2019-02-18T11:38:45.969Z,10.03
2019-02-18T11:40:19.669Z,10.26
2019-02-18T11:41:53.893Z,10.39
2019-02-18T11:43:27.842Z,10.17
2019-02-18T11:45:01.703Z,10.37
2019-02-18T11:46:35.770Z,10.40
2019-02-18T11:48:09.795Z,10.32
2019-02-18T11:49:43.812Z,10.30
2019-02-18T11:51:17.880Z,10.46
2019-02-18T11:52:52.030Z,10.54
2019-02-18T11:54:25.915Z,10.60
2019-02-18T11:55:59.736Z,10.61
2019-02-18T11:57:34.401Z,10.39
2019-02-18T11:59:08.291Z,10.52
2019-02-18T12:00:42.262Z,10.52
2019-02-18T12:02:15.353Z,10.73
2019-02-18T12:03:49.237Z,10.75
2019-02-18T12:05:24.160Z,10.81
2019-02-18T12:06:57.900Z,10.91
2019-02-18T12:08:31.773Z,10.94
2019-02-18T12:10:05.477Z,10.86
2019-02-18T12:11:39.445Z,10.92
2019-02-18T12:13:13.170Z,11.17
2019-02-18T12:14:47.784Z,11.10
2019-02-18T12:16:21.714Z,11.08
2019-02-18T12:17:55.671Z,10.99
2019-02-18T12:19:29.488Z,10.95
2019-02-18T12:21:03.397Z,10.76
2019-02-18T12:22:37.158Z,10.88
2019-02-18T12:24:10.178Z,10.85
2019-02-18T12:25:43.200Z,10.89
2019-02-18T12:27:17.876Z,10.89
2019-02-18T12:28:51.591Z,10.93
2019-02-18T12:30:25.652Z,11.06
2019-02-18T12:32:00.486Z,11.25
2019-02-18T12:33:34.269Z,11.12
2019-02-18T12:35:08.310Z,11.11
2019-02-18T12:36:42.420Z,10.96
2019-02-18T12:38:17.457Z,11.18
2019-02-18T12:39:51.043Z,11.03
2019-02-18T12:41:25.774Z,11.10
2019-02-18T12:42:59.894Z,10.94
2019-02-18T12:44:34.426Z,11.02
2019-02-18T12:46:15.504Z,10.89
2019-02-18T12:47:41.763Z,10.99
2019-02-18T12:49:15.901Z,10.80
2019-02-18T12:50:49.007Z,10.89
2019-02-18T12:52:22.754Z,10.80
2019-02-18T12:54:04.805Z,10.98
2019-02-18T12:55:31.298Z,11.14
2019-02-18T12:57:04.389Z,11.24
2019-02-18T12:58:38.262Z,11.29
2019-02-18T13:00:12.263Z,11.42
2019-02-18T13:01:46.289Z,11.40
2019-02-18T13:03:20.607Z,11.58
2019-02-18T13:04:54.400Z,11.72
2019-02-18T13:06:28.298Z,11.98
2019-02-18T13:08:02.855Z,11.92
2019-02-18T13:09:36.103Z,11.99
2019-02-18T13:11:08.987Z,12.04
2019-02-18T13:12:42.054Z,11.93
2019-02-18T13:14:15.332Z,12.10
2019-02-18T13:15:49.866Z,12.13
2019-02-18T13:17:24.067Z,12.22
2019-02-18T13:18:57.799Z,11.96
2019-02-18T13:20:32.582Z,12.02
2019-02-18T13:22:06.728Z,12.13
2019-02-18T13:23:40.623Z,12.06
2019-02-18T13:25:14.639Z,11.83
2019-02-18T13:26:48.425Z,11.63
2019-02-18T13:28:22.322Z,11.47
2019-02-18T13:29:56.295Z,11.56
2019-02-18T13:31:31.134Z,11.50
2019-02-18T13:33:05.051Z,11.52
2019-02-18T13:34:39.775Z,11.58
2019-02-18T13:36:13.578Z,11.40
2019-02-18T13:37:48.190Z,11.42
2019-02-18T13:39:21.994Z,11.30
2019-02-18T13:40:55.597Z,11.02
2019-02-18T13:42:29.406Z,11.07
2019-02-18T13:44:04.117Z,10.99
2019-02-18T13:45:37.031Z,10.90
2019-02-18T13:47:10.789Z,10.96
2019-02-18T13:50:32.110Z,11.07
2019-02-18T13:52:06.390Z,11.06
2019-02-18T13:53:40.124Z,10.90
2019-02-18T13:55:14.080Z,10.95
2019-02-18T13:56:48.271Z,10.75
2019-02-18T13:58:23.273Z,10.78
2019-02-18T13:59:57.258Z,10.76
2019-02-18T14:01:31.141Z,10.57
2019-02-18T14:03:06.902Z,10.58
2019-02-18T14:04:39.930Z,10.38
2019-02-18T14:06:13.804Z,10.35
2019-02-18T14:07:47.069Z,10.31
2019-02-18T14:09:19.831Z,10.16
2019-02-18T14:10:53.583Z,10.07
2019-02-18T14:12:27.529Z,10.03
2019-02-18T14:14:02.495Z,10.02
2019-02-18T14:15:33.722Z,10.01
2019-02-18T14:17:07.762Z,9.86
2019-02-18T14:18:40.746Z,9.84
2019-02-18T14:20:14.683Z,9.81
2019-02-18T14:21:47.796Z,9.80
2019-02-18T14:23:21.534Z,9.75
2019-02-18T14:24:55.487Z,9.66
2019-02-18T14:26:29.335Z,9.66
2019-02-18T14:28:03.208Z,9.70
2019-02-18T14:29:37.085Z,9.70
2019-02-18T14:31:11.082Z,9.73
2019-02-18T14:32:45.116Z,9.71
2019-02-18T14:34:18.922Z,9.69
2019-02-18T14:35:52.845Z,9.80
2019-02-18T14:37:27.443Z,9.77
2019-02-18T14:39:01.421Z,9.78
2019-02-18T14:40:36.189Z,9.70
2019-02-18T14:42:11.047Z,9.70
2019-02-18T14:43:45.667Z,9.71
2019-02-18T14:45:19.824Z,9.58
2019-02-18T14:46:54.541Z,9.59
2019-02-18T14:48:28.425Z,9.52
2019-02-18T14:50:01.335Z,9.49
2019-02-18T14:51:35.042Z,9.49
2019-02-18T14:53:09.727Z,9.43
2019-02-18T14:54:44.351Z,9.35
2019-02-18T14:56:19.249Z,9.34
2019-02-18T14:57:52.424Z,9.29
2019-02-18T14:59:26.493Z,9.25
2019-02-18T15:01:00.407Z,9.22
2019-02-18T15:02:34.284Z,9.18
2019-02-18T15:04:09.327Z,9.11
2019-02-18T15:05:43.486Z,9.08
2019-02-18T15:07:17.521Z,9.02
2019-02-18T15:08:50.719Z,8.96
2019-02-18T15:10:24.703Z,8.91
2019-02-18T15:11:58.604Z,8.86
2019-02-18T15:13:31.709Z,8.82
2019-02-18T15:15:05.503Z,8.78
2019-02-18T15:16:39.503Z,8.81
2019-02-18T15:18:13.462Z,8.79
2019-02-18T15:19:46.293Z,8.82
2019-02-18T15:21:19.903Z,8.79
2019-02-18T15:22:53.813Z,8.79
2019-02-18T15:24:27.699Z,8.82
2019-02-18T15:26:01.542Z,8.77
2019-02-18T15:27:35.534Z,8.73
2019-02-18T15:29:09.301Z,8.79
2019-02-18T15:30:43.015Z,8.73
2019-02-18T15:32:16.705Z,8.73
2019-02-18T15:33:50.458Z,8.74
2019-02-18T15:35:24.214Z,8.79
2019-02-18T15:36:58.043Z,8.76
2019-02-18T15:38:30.758Z,8.69
2019-02-18T15:40:05.674Z,8.70
2019-02-18T15:41:39.312Z,8.66
2019-02-18T15:43:13.309Z,8.65
2019-02-18T15:44:47.268Z,8.62
2019-02-18T15:46:21.231Z,8.60
2019-02-18T15:48:01.547Z,8.50
2019-02-18T15:49:28.489Z,8.53
2019-02-18T15:51:01.463Z,8.49
2019-02-18T15:52:35.470Z,8.50
2019-02-18T15:54:09.334Z,8.48
2019-02-18T15:55:43.271Z,8.46
2019-02-18T15:57:17.907Z,8.46
2019-02-18T15:58:51.633Z,8.44
2019-02-18T16:00:27.524Z,8.40
2019-02-18T16:02:01.331Z,8.40
2019-02-18T16:03:35.152Z,8.35
2019-02-18T16:05:08.220Z,8.30
2019-02-18T16:06:41.101Z,8.27
2019-02-18T16:08:15.107Z,8.25
2019-02-18T16:09:48.286Z,8.21
2019-02-18T16:11:21.396Z,8.17
2019-02-18T16:12:55.594Z,8.16
2019-02-18T16:14:28.768Z,8.12
2019-02-18T16:16:03.063Z,8.10
2019-02-18T16:17:37.000Z,8.05
2019-02-18T16:19:10.799Z,8.03
2019-02-18T16:20:44.860Z,8.02
2019-02-18T16:22:17.762Z,7.98
2019-02-18T16:23:52.104Z,7.95
2019-02-18T16:25:28.039Z,7.95
2019-02-18T16:27:01.966Z,7.92
2019-02-18T16:28:35.748Z,7.91
2019-02-18T16:30:09.882Z,7.90
2019-02-18T16:31:43.756Z,7.87
2019-02-18T16:33:17.594Z,7.86
2019-02-18T16:34:51.449Z,7.88
2019-02-18T16:36:25.270Z,7.93
2019-02-18T16:37:58.447Z,7.94
2019-02-18T16:39:31.820Z,7.96
2019-02-18T16:41:05.716Z,7.96
2019-02-18T16:42:38.557Z,7.98
2019-02-18T16:44:12.459Z,8.01
2019-02-18T16:45:46.285Z,7.98
2019-02-18T16:47:19.178Z,7.97
2019-02-18T16:48:52.213Z,8.01
2019-02-18T16:50:25.802Z,7.99
2019-02-18T16:51:58.982Z,7.98
2019-02-18T16:53:32.758Z,7.98
2019-02-18T16:55:06.839Z,8.00
2019-02-18T16:56:40.553Z,7.98
2019-02-18T16:58:14.554Z,8.00
2019-02-18T16:59:48.515Z,7.97
2019-02-18T17:01:22.283Z,7.99
2019-02-18T17:02:56.058Z,7.99
2019-02-18T17:04:28.963Z,7.96
2019-02-18T17:06:03.053Z,7.97
2019-02-18T17:07:36.191Z,7.99
2019-02-18T17:09:10.001Z,7.99
2019-02-18T17:10:42.890Z,8.00
2019-02-18T17:12:15.800Z,8.01
2019-02-18T17:13:49.481Z,7.99
2019-02-18T17:15:24.448Z,7.99
2019-02-18T17:16:57.492Z,8.06
2019-02-18T17:18:32.422Z,8.05
2019-02-18T17:20:06.345Z,8.03
2019-02-18T17:21:40.428Z,8.01
2019-02-18T17:23:14.172Z,8.02
2019-02-18T17:24:47.180Z,8.01
2019-02-18T17:26:20.346Z,7.99
2019-02-18T17:27:53.463Z,7.96
2019-02-18T17:29:28.333Z,7.92
2019-02-18T17:31:02.185Z,7.90
2019-02-18T17:32:36.025Z,7.93
2019-02-18T17:34:08.915Z,7.94
2019-02-18T17:35:42.876Z,7.94
2019-02-18T17:37:15.641Z,7.90
2019-02-18T17:38:49.430Z,7.87
2019-02-18T17:40:23.963Z,7.84
2019-02-18T17:41:57.740Z,7.79
2019-02-18T17:43:31.492Z,7.75
2019-02-18T17:45:05.110Z,7.68
2019-02-18T17:46:39.138Z,7.65
2019-02-18T17:48:12.919Z,7.58
2019-02-18T17:49:46.656Z,7.52
2019-02-18T17:51:20.594Z,7.57
2019-02-18T17:52:55.258Z,7.56
2019-02-18T17:54:29.294Z,7.58
2019-02-18T17:56:03.036Z,7.59
2019-02-18T17:57:36.905Z,7.62
2019-02-18T17:59:10.770Z,7.65
2019-02-18T18:00:44.786Z,7.62
2019-02-18T18:02:18.618Z,7.65
2019-02-18T18:03:52.555Z,7.63
2019-02-18T18:05:26.537Z,7.65
2019-02-18T18:07:01.340Z,7.60
2019-02-18T18:08:35.535Z,7.63
2019-02-18T18:10:09.363Z,7.61
2019-02-18T18:11:42.231Z,7.61
2019-02-18T18:13:24.786Z,7.63
2019-02-18T18:14:49.805Z,7.61
2019-02-18T18:16:23.639Z,7.61
2019-02-18T18:17:57.368Z,7.63
2019-02-18T18:19:31.107Z,7.62
2019-02-18T18:21:04.921Z,7.65
2019-02-18T18:22:38.664Z,7.68
2019-02-18T18:24:13.315Z,7.67
2019-02-18T18:25:46.309Z,7.65
2019-02-18T18:27:20.338Z,7.64
2019-02-18T18:28:55.214Z,7.59
2019-02-18T18:30:28.949Z,7.65
2019-02-18T18:32:03.778Z,7.65
2019-02-18T18:33:37.582Z,7.62
2019-02-18T18:35:11.800Z,7.61
2019-02-18T18:36:45.615Z,7.63
2019-02-18T18:38:18.666Z,7.61
2019-02-18T18:39:52.786Z,7.57
2019-02-18T18:41:26.942Z,7.55
2019-02-18T18:42:59.662Z,7.54
2019-02-18T18:44:33.452Z,7.52
2019-02-18T18:46:07.579Z,7.45
2019-02-18T18:47:40.788Z,7.39
2019-02-18T18:49:14.637Z,7.36
2019-02-18T18:50:48.527Z,7.30
2019-02-18T18:52:22.425Z,7.34
2019-02-18T18:53:56.094Z,7.34
2019-02-18T18:55:30.068Z,7.32
2019-02-18T18:57:03.683Z,7.27
2019-02-18T18:58:36.528Z,7.24
2019-02-18T19:00:09.406Z,7.21
2019-02-18T19:01:43.178Z,7.19
2019-02-18T19:03:16.945Z,7.18
2019-02-18T19:04:50.883Z,7.18
2019-02-18T19:06:24.635Z,7.16
2019-02-18T19:07:58.769Z,7.13
2019-02-18T19:09:31.943Z,7.12
2019-02-18T19:11:05.870Z,7.12
2019-02-18T19:12:39.640Z,7.10
2019-02-18T19:14:12.496Z,7.11
2019-02-18T19:15:49.570Z,7.13
2019-02-18T19:17:20.390Z,7.14
2019-02-18T19:18:54.461Z,7.15
2019-02-18T19:20:29.227Z,7.16
2019-02-18T19:22:02.396Z,7.18
2019-02-18T19:23:35.267Z,7.14
2019-02-18T19:25:09.356Z,7.14
2019-02-18T19:26:42.188Z,7.10
2019-02-18T19:28:15.003Z,7.06
2019-02-18T19:29:48.905Z,7.01
2019-02-18T19:31:22.626Z,7.00
2019-02-18T19:32:56.364Z,6.99
2019-02-18T19:34:30.162Z,6.98
2019-02-18T19:36:03.880Z,6.96
2019-02-18T19:37:37.786Z,6.95
2019-02-18T19:39:12.681Z,6.97
2019-02-18T19:40:45.553Z,6.97
2019-02-18T19:42:19.373Z,6.92
2019-02-18T19:43:52.648Z,6.88
2019-02-18T19:45:28.570Z,6.88
2019-02-18T19:47:02.520Z,6.82
2019-02-18T19:48:36.421Z,6.78
2019-02-18T19:50:10.532Z,6.80
2019-02-18T19:51:45.148Z,6.82
2019-02-18T19:53:18.077Z,6.83
2019-02-18T19:54:52.413Z,6.83
2019-02-18T19:56:26.441Z,6.80
2019-02-18T19:57:59.402Z,6.76
2019-02-18T19:59:32.178Z,6.73
2019-02-18T20:01:06.016Z,6.68
2019-02-18T20:02:39.780Z,6.68
2019-02-18T20:04:14.437Z,6.69
2019-02-18T20:05:47.561Z,6.66
2019-02-18T20:07:22.192Z,6.65
2019-02-18T20:08:57.032Z,6.64
2019-02-18T20:10:31.013Z,6.61
2019-02-18T20:12:04.804Z,6.59
2019-02-18T20:13:39.656Z,6.60
2019-02-18T20:15:12.667Z,6.62
2019-02-18T20:16:46.225Z,6.60
2019-02-18T20:18:21.065Z,6.59
2019-02-18T20:19:55.049Z,6.58
2019-02-18T20:21:27.913Z,6.60
2019-02-18T20:23:01.938Z,6.61
2019-02-18T20:24:35.678Z,6.58
2019-02-18T20:26:09.741Z,6.59
2019-02-18T20:27:44.402Z,6.56
2019-02-18T20:29:18.178Z,6.58
2019-02-18T20:30:52.022Z,6.56
2019-02-18T20:32:24.895Z,6.58
2019-02-18T20:33:58.538Z,6.58
2019-02-18T20:35:33.536Z,6.50
2019-02-18T20:37:07.344Z,6.48
2019-02-18T20:38:41.070Z,6.44
2019-02-18T20:40:14.782Z,6.41
2019-02-18T20:41:48.678Z,6.43
2019-02-18T20:43:22.339Z,6.40
2019-02-18T20:44:56.408Z,6.42
2019-02-18T20:46:29.151Z,6.43
2019-02-18T20:48:03.961Z,6.45
2019-02-18T20:49:38.008Z,6.48
2019-02-18T20:51:11.743Z,6.47